Terminal Aerodrome Forecast
Issued by NWS

Home | Current Version | Previous Version | Graphics & Text | Print | Product List | Glossary On
Versions: 1 2 3 4 5 6 7 8 9 10 11 12 13
000
FTUS43 KTOP 180520
TAFFOE
TAF
KFOE 180520Z 1806/1906 09022G32KT P6SM SCT150 WS020/22045KT
     FM180900 29019G30KT P6SM SCT050
     FM181300 30023G33KT P6SM BKN020
     FM181600 30024G34KT P6SM BKN035
     FM190100 33013KT P6SM FEW150=

USA.gov is the U.S. government's official web portal to all federal, state and local government web resources and services.